Frankfort, KS (66427)

8:16 AM CDT on March 29, 2017 (GMT -0500)
Southern Seneca | | Change Station

Elev 1148 ft 39.83 °N, 96.07 °W | Updated 17 seconds ago

Rain
Rain
46.9 °F
Feels Like 47 °F
N
1.3
Wind Variable Wind from North
Gusts 4.0 mph

Today
High -- | Low -- °F
--% Chance of Precip.
Yesterday
High -- | Low -- °F
Precip. -- in
Pressure 29.81 in
Visibility 5.0 miles
Clouds Overcast 900 ft
Windchill 47 °F
Dew Point 47 °F
Humidity 99%
Rainfall 0.93 in
Snow Depth Not available.
7:14 AM 7:47 PM
Waxing Crescent, 3% visible
METAR KMHK 291252Z 05015G23KT 5SM -RA BR OVC009 10/10 A2980 RMK AO2 CIG 007V013 SLP092 P0005 T01000100
Pressure 29.81 in
Visibility 5.0 miles
Clouds Overcast 900 ft
Windchill 47 °F
Dew Point 47 °F
Humidity 99%
Rainfall 0.93 in
Snow Depth Not available.
7:14 AM 7:47 PM
Waxing Crescent, 3% visible
METAR KMHK 291252Z 05015G23KT 5SM -RA BR OVC009 10/10 A2980 RMK AO2 CIG 007V013 SLP092 P0005 T01000100

Get Severe Weather Alerts

Thanks for signing up!

Be on the lookout for a verification email in your inbox.

You'll start receiving the daily forecast at 8 AM.

×

10-Day Weather Forecast

Almanac

Astronomy

Mar. 29, 2017 Rise Set
Actual Time
Civil Twilight
Nautical Twilight
Astronomical Twilight
Moon
Length of Visible Light
Length of Day
Tomorrow will be .
, % of the Moon is Illuminated

Today's Extremes

State Highs State Lows

Community

WunderPhotos

Upload Photos

1,962,540 photos uploaded!

WunderBlog® & News

Nearby

Air Quality

  Air Quality AQ Index Pollutant
Not available.

Snow Depth

Station Depth Elevation

Earthquake Activity

City Distance Mag. Time & Date
Minimum magnitude displayed is 2.5.

Earthquake Activity

City Distance Mag. Time & Date
Minimum magnitude displayed is 2.5.

Coastal Water Temperatures

Place Temperature

Stations

Nearby Weather Stations

Station Location Temp. Windchill Dew Point Humidity Wind Precip. Elev Updated Type
                   

Watches & Warnings

There are currently no watches in effect.